YMA819 NZQN-NZWP
Flight info
| Callsign | YMA819 |
|---|---|
| Flight time | N/A |
| Altitude | 21000 |
| Route | SAVLA DCT DAMIL DCT OVRIR DCT LEKUS |
| Aircraft | DH8D/M-SDE2E3FGRY/H |
Departure
| Time | N/A |
|---|---|
| Airport | Queenstown Airport (NZQN) |
Arrival
| Time | 2026-04-14 07:11 |
|---|---|
| Airport | RNZAF Base Auckland-Whenuapai (NZWP) |
| Time | Latitude | Longitude | Altitude | Speed | Heading |
|---|---|---|---|---|---|
| 2026-04-14 06:25 | -39.98617 | 172.63332 | 22588 ft | 343 kts | 23° |
| 2026-04-14 06:25 | -39.96574 | 172.64899 | 22589 ft | 343 kts | 23° |
| 2026-04-14 06:26 | -39.94515 | 172.66478 | 22590 ft | 343 kts | 23° |
| 2026-04-14 06:26 | -39.92458 | 172.68053 | 22586 ft | 342 kts | 23° |
| 2026-04-14 06:26 | -39.90418 | 172.69615 | 22585 ft | 342 kts | 22° |
| 2026-04-14 06:26 | -39.88369 | 172.71182 | 22587 ft | 342 kts | 22° |
| 2026-04-14 06:27 | -39.86333 | 172.72739 | 22589 ft | 342 kts | 22° |
| 2026-04-14 06:27 | -39.84278 | 172.74307 | 22593 ft | 342 kts | 22° |
| 2026-04-14 06:27 | -39.82229 | 172.75868 | 22585 ft | 342 kts | 23° |
| 2026-04-14 06:27 | -39.80166 | 172.77446 | 22600 ft | 342 kts | 22° |
| 2026-04-14 06:28 | -39.78115 | 172.79009 | 22600 ft | 342 kts | 22° |
| 2026-04-14 06:28 | -39.76069 | 172.80566 | 22600 ft | 343 kts | 22° |
| 2026-04-14 06:28 | -39.73995 | 172.82144 | 22600 ft | 344 kts | 22° |
| 2026-04-14 06:28 | -39.71931 | 172.83713 | 22601 ft | 345 kts | 22° |
| 2026-04-14 06:29 | -39.69878 | 172.85274 | 22602 ft | 345 kts | 23° |
| 2026-04-14 06:29 | -39.67808 | 172.86847 | 22605 ft | 345 kts | 23° |
| 2026-04-14 06:29 | -39.65737 | 172.88417 | 22601 ft | 345 kts | 23° |
| 2026-04-14 06:29 | -39.63658 | 172.89995 | 22603 ft | 345 kts | 23° |
| 2026-04-14 06:30 | -39.61596 | 172.91559 | 22606 ft | 345 kts | 23° |
| 2026-04-14 06:30 | -39.59543 | 172.93114 | 22609 ft | 345 kts | 23° |
| 2026-04-14 06:30 | -39.57475 | 172.94681 | 22611 ft | 345 kts | 23° |
| 2026-04-14 06:30 | -39.55397 | 172.96252 | 22612 ft | 344 kts | 22° |
| 2026-04-14 06:31 | -39.53335 | 172.97812 | 22617 ft | 344 kts | 22° |
| 2026-04-14 06:31 | -39.51277 | 172.99367 | 22620 ft | 345 kts | 22° |
| 2026-04-14 06:31 | -39.49199 | 173.00934 | 22622 ft | 345 kts | 22° |
| 2026-04-14 06:31 | -39.47129 | 173.02495 | 22623 ft | 345 kts | 22° |
| 2026-04-14 06:32 | -39.45058 | 173.04056 | 22623 ft | 345 kts | 22° |
| 2026-04-14 06:32 | -39.42981 | 173.05620 | 22624 ft | 345 kts | 22° |
| 2026-04-14 06:32 | -39.40921 | 173.07170 | 22625 ft | 345 kts | 22° |
| 2026-04-14 06:32 | -39.38842 | 173.08737 | 22625 ft | 346 kts | 22° |
| 2026-04-14 06:33 | -39.36773 | 173.10303 | 22626 ft | 346 kts | 23° |
| 2026-04-14 06:33 | -39.34672 | 173.11893 | 22627 ft | 346 kts | 22° |
| 2026-04-14 06:33 | -39.32616 | 173.13432 | 22627 ft | 346 kts | 22° |
| 2026-04-14 06:34 | -39.28434 | 173.16559 | 22628 ft | 346 kts | 22° |
| 2026-04-14 06:34 | -39.26368 | 173.18105 | 22629 ft | 346 kts | 23° |
| 2026-04-14 06:34 | -39.24287 | 173.19659 | 22630 ft | 346 kts | 23° |
| 2026-04-14 06:34 | -39.22197 | 173.21223 | 22630 ft | 346 kts | 23° |
| 2026-04-14 06:35 | -39.20124 | 173.22772 | 22631 ft | 346 kts | 23° |
| 2026-04-14 06:35 | -39.18006 | 173.24191 | 22631 ft | 342 kts | 17° |
| 2026-04-14 06:35 | -39.15832 | 173.25395 | 22631 ft | 341 kts | 15° |
| 2026-04-14 06:35 | -39.13653 | 173.26578 | 22632 ft | 341 kts | 15° |
| 2026-04-14 06:36 | -39.11467 | 173.27759 | 22633 ft | 341 kts | 15° |
| 2026-04-14 06:36 | -39.09265 | 173.28949 | 22633 ft | 341 kts | 15° |
| 2026-04-14 06:36 | -39.07086 | 173.30125 | 22634 ft | 342 kts | 15° |
| 2026-04-14 06:36 | -39.04901 | 173.31305 | 22634 ft | 342 kts | 15° |
| 2026-04-14 06:37 | -39.02717 | 173.32484 | 22634 ft | 342 kts | 15° |
| 2026-04-14 06:37 | -39.00497 | 173.33682 | 22635 ft | 342 kts | 15° |
| 2026-04-14 06:37 | -38.98318 | 173.34856 | 22636 ft | 342 kts | 15° |
| 2026-04-14 06:37 | -38.96127 | 173.36037 | 22637 ft | 343 kts | 15° |
| 2026-04-14 06:38 | -38.93910 | 173.37230 | 22638 ft | 343 kts | 15° |
| 2026-04-14 06:38 | -38.91725 | 173.38406 | 22639 ft | 343 kts | 15° |
| 2026-04-14 06:38 | -38.89534 | 173.39584 | 22641 ft | 343 kts | 15° |
| 2026-04-14 06:38 | -38.87322 | 173.40773 | 22641 ft | 344 kts | 15° |
| 2026-04-14 06:39 | -38.85114 | 173.41960 | 22643 ft | 344 kts | 15° |
| 2026-04-14 06:39 | -38.82905 | 173.43146 | 22644 ft | 344 kts | 15° |
| 2026-04-14 06:39 | -38.80694 | 173.44331 | 22645 ft | 344 kts | 15° |
| 2026-04-14 06:39 | -38.78496 | 173.45509 | 22645 ft | 344 kts | 15° |
| 2026-04-14 06:40 | -38.76277 | 173.46698 | 22645 ft | 345 kts | 15° |
| 2026-04-14 06:40 | -38.74087 | 173.47871 | 22645 ft | 345 kts | 15° |
| 2026-04-14 06:40 | -38.71886 | 173.49049 | 22646 ft | 345 kts | 15° |
| 2026-04-14 06:40 | -38.69667 | 173.50235 | 22646 ft | 345 kts | 15° |
| 2026-04-14 06:41 | -38.67458 | 173.51428 | 22646 ft | 346 kts | 16° |
| 2026-04-14 06:41 | -38.65242 | 173.52617 | 22646 ft | 346 kts | 15° |
| 2026-04-14 06:41 | -38.62994 | 173.53815 | 22647 ft | 346 kts | 15° |
| 2026-04-14 06:41 | -38.60774 | 173.54996 | 22647 ft | 346 kts | 15° |
| 2026-04-14 06:42 | -38.58584 | 173.56160 | 22647 ft | 346 kts | 15° |
| 2026-04-14 06:42 | -38.56343 | 173.57352 | 22647 ft | 346 kts | 15° |
| 2026-04-14 06:42 | -38.54132 | 173.58525 | 22648 ft | 346 kts | 15° |
| 2026-04-14 06:42 | -38.51913 | 173.59703 | 22648 ft | 347 kts | 15° |
| 2026-04-14 06:43 | -38.49664 | 173.60899 | 22649 ft | 347 kts | 15° |
| 2026-04-14 06:43 | -38.47459 | 173.62070 | 22649 ft | 347 kts | 15° |
| 2026-04-14 06:43 | -38.45239 | 173.63248 | 22649 ft | 347 kts | 15° |
| 2026-04-14 06:43 | -38.42989 | 173.64441 | 22650 ft | 347 kts | 15° |
| 2026-04-14 06:44 | -38.40778 | 173.65613 | 22649 ft | 347 kts | 15° |
| 2026-04-14 06:44 | -38.38554 | 173.66791 | 22651 ft | 346 kts | 15° |
| 2026-04-14 06:44 | -38.36321 | 173.67973 | 22652 ft | 346 kts | 15° |
| 2026-04-14 06:44 | -38.34117 | 173.69139 | 22652 ft | 346 kts | 15° |
| 2026-04-14 06:45 | -38.31879 | 173.70322 | 22653 ft | 347 kts | 15° |
| 2026-04-14 06:45 | -38.29647 | 173.71501 | 22654 ft | 347 kts | 15° |
| 2026-04-14 06:45 | -38.27438 | 173.72665 | 22655 ft | 347 kts | 15° |
| 2026-04-14 06:45 | -38.25204 | 173.73845 | 22655 ft | 347 kts | 15° |
| 2026-04-14 06:46 | -38.20747 | 173.76193 | 22654 ft | 347 kts | 15° |
| 2026-04-14 06:46 | -38.18532 | 173.77359 | 22664 ft | 346 kts | 15° |
| 2026-04-14 06:46 | -38.16301 | 173.78534 | 22679 ft | 346 kts | 15° |
| 2026-04-14 06:47 | -38.14074 | 173.79704 | 22696 ft | 345 kts | 15° |
| 2026-04-14 06:47 | -38.11858 | 173.80868 | 22716 ft | 345 kts | 15° |
| 2026-04-14 06:47 | -38.09662 | 173.82022 | 22723 ft | 345 kts | 15° |
| 2026-04-14 06:47 | -38.07417 | 173.83200 | 22725 ft | 346 kts | 15° |
| 2026-04-14 06:48 | -38.07239 | 173.83293 | 22725 ft | 346 kts | 15° |
| 2026-04-14 06:48 | -38.06296 | 173.83787 | 22725 ft | 346 kts | 15° |
| 2026-04-14 06:48 | -38.04071 | 173.84955 | 22726 ft | 347 kts | 15° |
| 2026-04-14 06:48 | -38.01859 | 173.86113 | 22724 ft | 347 kts | 15° |
| 2026-04-14 06:49 | -37.99624 | 173.87283 | 22724 ft | 347 kts | 15° |
| 2026-04-14 06:49 | -37.97403 | 173.88444 | 22724 ft | 347 kts | 15° |
| 2026-04-14 06:49 | -37.95158 | 173.89618 | 22724 ft | 348 kts | 15° |
| 2026-04-14 06:49 | -37.92912 | 173.90791 | 22723 ft | 348 kts | 15° |
| 2026-04-14 06:50 | -37.90697 | 173.91950 | 22722 ft | 346 kts | 15° |
| 2026-04-14 06:50 | -37.88478 | 173.93111 | 22719 ft | 340 kts | 15° |
| 2026-04-14 06:50 | -37.86314 | 173.94241 | 22716 ft | 332 kts | 15° |
| 2026-04-14 06:50 | -37.84205 | 173.95340 | 22679 ft | 327 kts | 14° |
| 2026-04-14 06:51 | -37.82114 | 173.96425 | 22219 ft | 328 kts | 14° |
| 2026-04-14 06:51 | -37.79987 | 173.97525 | 21688 ft | 329 kts | 14° |
| 2026-04-14 06:51 | -37.77879 | 173.98618 | 21089 ft | 331 kts | 14° |
| 2026-04-14 06:51 | -37.75759 | 173.99715 | 20376 ft | 334 kts | 15° |
| 2026-04-14 06:52 | -37.73595 | 174.00835 | 19644 ft | 335 kts | 15° |
| 2026-04-14 06:52 | -37.71464 | 174.01939 | 18915 ft | 334 kts | 15° |
| 2026-04-14 06:52 | -37.69324 | 174.03050 | 18173 ft | 334 kts | 15° |
| 2026-04-14 06:52 | -37.67200 | 174.04152 | 17404 ft | 332 kts | 15° |
| 2026-04-14 06:53 | -37.65051 | 174.05267 | 16624 ft | 331 kts | 15° |
| 2026-04-14 06:53 | -37.62944 | 174.06358 | 15856 ft | 329 kts | 15° |
| 2026-04-14 06:53 | -37.60843 | 174.07446 | 15086 ft | 328 kts | 15° |
| 2026-04-14 06:53 | -37.58740 | 174.08537 | 14302 ft | 326 kts | 16° |
| 2026-04-14 06:54 | -37.56674 | 174.09605 | 13530 ft | 324 kts | 16° |
| 2026-04-14 06:54 | -37.54606 | 174.10673 | 12778 ft | 322 kts | 16° |
| 2026-04-14 06:54 | -37.52530 | 174.11746 | 12168 ft | 314 kts | 16° |
| 2026-04-14 06:54 | -37.50563 | 174.12764 | 11809 ft | 301 kts | 16° |
| 2026-04-14 06:55 | -37.48665 | 174.13747 | 11526 ft | 287 kts | 15° |
| 2026-04-14 06:55 | -37.46869 | 174.14674 | 11279 ft | 275 kts | 15° |
| 2026-04-14 06:55 | -37.45123 | 174.15575 | 11048 ft | 268 kts | 15° |
| 2026-04-14 06:55 | -37.43405 | 174.16458 | 10832 ft | 267 kts | 15° |
| 2026-04-14 06:56 | -37.41685 | 174.17340 | 10605 ft | 267 kts | 15° |
| 2026-04-14 06:56 | -37.39973 | 174.18216 | 10379 ft | 267 kts | 15° |
| 2026-04-14 06:56 | -37.38237 | 174.19109 | 10150 ft | 266 kts | 15° |
| 2026-04-14 06:56 | -37.36528 | 174.19986 | 9914 ft | 267 kts | 16° |
| 2026-04-14 06:57 | -37.34824 | 174.20862 | 9688 ft | 267 kts | 16° |
| 2026-04-14 06:57 | -37.33091 | 174.21751 | 9454 ft | 267 kts | 16° |
| 2026-04-14 06:57 | -37.31387 | 174.22626 | 9225 ft | 267 kts | 16° |
| 2026-04-14 06:57 | -37.29655 | 174.23514 | 8989 ft | 265 kts | 16° |
| 2026-04-14 06:58 | -37.27978 | 174.24377 | 8747 ft | 257 kts | 17° |
| 2026-04-14 06:58 | -37.26338 | 174.25220 | 8536 ft | 249 kts | 16° |
| 2026-04-14 06:58 | -37.24755 | 174.26027 | 8321 ft | 242 kts | 16° |
| 2026-04-14 06:58 | -37.23226 | 174.26807 | 8118 ft | 235 kts | 16° |
| 2026-04-14 06:59 | -37.21728 | 174.27576 | 7914 ft | 229 kts | 16° |
| 2026-04-14 06:59 | -37.20286 | 174.28314 | 7721 ft | 222 kts | 16° |
| 2026-04-14 06:59 | -37.18868 | 174.29039 | 7528 ft | 215 kts | 15° |
| 2026-04-14 06:59 | -37.17508 | 174.29733 | 7345 ft | 208 kts | 15° |
| 2026-04-14 07:00 | -37.16197 | 174.30405 | 7166 ft | 201 kts | 15° |
| 2026-04-14 07:00 | -37.14927 | 174.31053 | 6994 ft | 193 kts | 15° |
| 2026-04-14 07:00 | -37.13709 | 174.31679 | 6820 ft | 184 kts | 15° |
| 2026-04-14 07:00 | -37.12530 | 174.32283 | 6669 ft | 179 kts | 14° |
| 2026-04-14 07:01 | -37.11401 | 174.32861 | 6515 ft | 173 kts | 14° |
| 2026-04-14 07:01 | -37.10296 | 174.33426 | 6363 ft | 167 kts | 14° |
| 2026-04-14 07:01 | -37.09248 | 174.33962 | 6220 ft | 160 kts | 14° |
| 2026-04-14 07:01 | -37.08231 | 174.34482 | 6023 ft | 156 kts | 13° |
| 2026-04-14 07:02 | -37.07215 | 174.34994 | 5818 ft | 160 kts | 14° |
| 2026-04-14 07:02 | -37.06191 | 174.35518 | 5751 ft | 157 kts | 14° |
| 2026-04-14 07:02 | -37.05180 | 174.36032 | 5655 ft | 159 kts | 14° |
| 2026-04-14 07:02 | -37.04122 | 174.36568 | 5536 ft | 163 kts | 14° |
| 2026-04-14 07:03 | -37.03067 | 174.37099 | 5411 ft | 168 kts | 14° |
| 2026-04-14 07:03 | -37.01971 | 174.37654 | 5267 ft | 170 kts | 14° |
| 2026-04-14 07:03 | -37.00881 | 174.38211 | 5115 ft | 169 kts | 18° |
| 2026-04-14 07:03 | -36.99802 | 174.38808 | 4969 ft | 166 kts | 18° |
| 2026-04-14 07:04 | -36.98758 | 174.39381 | 4835 ft | 165 kts | 18° |
| 2026-04-14 07:04 | -36.97707 | 174.39947 | 4691 ft | 164 kts | 18° |
| 2026-04-14 07:04 | -36.96658 | 174.40503 | 4540 ft | 160 kts | 17° |
| 2026-04-14 07:04 | -36.95643 | 174.41038 | 4395 ft | 155 kts | 18° |
| 2026-04-14 07:05 | -36.94684 | 174.41566 | 4249 ft | 148 kts | 17° |
| 2026-04-14 07:05 | -36.93740 | 174.42064 | 4049 ft | 146 kts | 18° |
| 2026-04-14 07:05 | -36.92798 | 174.42581 | 3794 ft | 147 kts | 18° |
| 2026-04-14 07:05 | -36.91874 | 174.43085 | 3590 ft | 145 kts | 18° |
| 2026-04-14 07:06 | -36.90956 | 174.43607 | 3354 ft | 148 kts | 26° |
| 2026-04-14 07:06 | -36.90203 | 174.44487 | 3180 ft | 148 kts | 51° |
| 2026-04-14 07:06 | -36.89648 | 174.45549 | 3017 ft | 145 kts | 55° |
| 2026-04-14 07:06 | -36.89085 | 174.46588 | 2827 ft | 145 kts | 52° |
| 2026-04-14 07:07 | -36.88493 | 174.47598 | 2708 ft | 142 kts | 51° |
| 2026-04-14 07:07 | -36.87903 | 174.48584 | 2558 ft | 143 kts | 50° |
| 2026-04-14 07:07 | -36.87308 | 174.49573 | 2422 ft | 142 kts | 50° |
| 2026-04-14 07:07 | -36.86709 | 174.50565 | 2261 ft | 142 kts | 50° |
| 2026-04-14 07:08 | -36.86124 | 174.51537 | 2129 ft | 141 kts | 50° |
| 2026-04-14 07:08 | -36.85531 | 174.52519 | 1974 ft | 140 kts | 51° |
| 2026-04-14 07:08 | -36.84943 | 174.53490 | 1812 ft | 139 kts | 50° |
| 2026-04-14 07:08 | -36.84368 | 174.54446 | 1689 ft | 139 kts | 51° |
| 2026-04-14 07:09 | -36.83779 | 174.55426 | 1511 ft | 142 kts | 51° |
| 2026-04-14 07:09 | -36.83182 | 174.56395 | 1289 ft | 142 kts | 50° |
| 2026-04-14 07:09 | -36.82576 | 174.57361 | 1096 ft | 140 kts | 50° |
| 2026-04-14 07:09 | -36.81983 | 174.58315 | 898 ft | 137 kts | 51° |
| 2026-04-14 07:10 | -36.81414 | 174.59227 | 715 ft | 133 kts | 50° |
| 2026-04-14 07:10 | -36.80849 | 174.60121 | 536 ft | 130 kts | 51° |
| 2026-04-14 07:10 | -36.80283 | 174.61005 | 395 ft | 130 kts | 51° |
| 2026-04-14 07:10 | -36.79740 | 174.61894 | 195 ft | 127 kts | 53° |
| 2026-04-14 07:11 | -36.79205 | 174.62761 | 106 ft | 117 kts | 53° |
| 2026-04-14 07:11 | -36.78867 | 174.63316 | 97 ft | 42 kts | 53° |
| 2026-04-14 07:11 | -36.78802 | 174.63431 | 94 ft | 0 kts | 55° |
| 2026-04-14 07:12 | -36.78797 | 174.63444 | 93 ft | 6 kts | 77° |
| 2026-04-14 07:12 | -36.78786 | 174.63435 | 94 ft | 3 kts | 246° |
| 2026-04-14 07:12 | -36.78825 | 174.63373 | 95 ft | 15 kts | 232° |
| 2026-04-14 07:12 | -36.78915 | 174.63231 | 101 ft | 24 kts | 232° |
| 2026-04-14 07:13 | -36.79025 | 174.63051 | 104 ft | 23 kts | 232° |
| 2026-04-14 07:13 | -36.79110 | 174.62912 | 105 ft | 11 kts | 234° |
| 2026-04-14 07:13 | -36.79111 | 174.62833 | 105 ft | 8 kts | 289° |
| 2026-04-14 07:13 | -36.79092 | 174.62775 | 105 ft | 6 kts | 296° |
| 2026-04-14 07:14 | -36.79061 | 174.62752 | 105 ft | 3 kts | 3° |
| 2026-04-14 07:14 | -36.79007 | 174.62732 | 105 ft | 11 kts | 354° |
| 2026-04-14 07:14 | -36.78937 | 174.62726 | 104 ft | 5 kts | 357° |
| 2026-04-14 07:14 | -36.78934 | 174.62726 | 104 ft | 0 kts | 357° |